Terminal Aerodrome Forecast
Issued by NWS Bismarck, ND

Home | Current Version | Previous Version | Text Only | Print | Product List | Glossary Off
Versions: 1 2 3 4 5 6 7 8 9 10 11 12 13 14 15 16 17 18 19 20 21 22 23

000
FTUS43 KBIS 071100
TAFBIS
TAF
KBIS 071136Z 0712/0812 33005KT P6SM SCT100
     FM071500 32012KT P6SM SCT050
     FM071800 33018G28KT P6SM VCTS SCT060CB BKN080
     FM080200 31008KT P6SM BKN060=

USA.gov is the U.S. government's official web portal to all federal, state and local government web resources and services.